Time;durP1;ratioP1;P1;durP2;ratioP2;P2;SDS_P1;SDS_P2;PMS_P1;PMS_P2;Temp;Humidity;BMP_temperature;BMP_pressure;BME280_temperature;BME280_humidity;BME280_pressure;Samples;Min_cycle;Max_cycle;Signal;HPM_P1;HPM_P2
2023/07/03 00:02:19;;;;;;;6.97;3.65;;;22.00;55.50;;;;;;5052273;28;20210;-71
2023/07/03 00:04:45;;;;;;;7.00;4.28;;;22.00;55.50;;;;;;5052884;28;20174;-70
2023/07/03 00:07:12;;;;;;;5.75;3.58;;;22.00;55.50;;;;;;5052839;28;20232;-70
2023/07/03 00:09:37;;;;;;;7.43;3.58;;;22.00;55.50;;;;;;5052131;28;20175;-70
2023/07/03 00:12:03;;;;;;;5.75;3.97;;;22.00;55.50;;;;;;5052519;28;20205;-69
2023/07/03 00:14:28;;;;;;;4.60;3.28;;;22.00;55.60;;;;;;5052885;28;20175;-68
2023/07/03 00:16:55;;;;;;;6.60;3.78;;;22.00;55.50;;;;;;5052156;28;20657;-69
2023/07/03 00:19:26;;;;;;;6.57;4.05;;;22.00;55.50;;;;;;5053051;28;20208;-68
2023/07/03 00:21:52;;;;;;;6.45;3.85;;;22.00;55.50;;;;;;5052745;28;20661;-69
2023/07/03 00:24:18;;;;;;;6.72;3.83;;;22.00;55.50;;;;;;5051689;28;20179;-69
2023/07/03 00:26:43;;;;;;;6.38;3.60;;;22.00;55.50;;;;;;5052762;28;20178;-68
2023/07/03 00:29:09;;;;;;;6.50;3.55;;;22.00;55.50;;;;;;5052250;28;20178;-70
2023/07/03 00:31:34;;;;;;;5.35;3.85;;;22.00;55.50;;;;;;5051911;28;20262;-69
2023/07/03 00:34:00;;;;;;;9.25;3.90;;;21.90;55.50;;;;;;5052625;28;20203;-70
2023/07/03 00:36:26;;;;;;;6.20;3.53;;;21.90;55.40;;;;;;5052863;28;20210;-71
2023/07/03 00:38:57;;;;;;;5.20;3.55;;;21.90;55.50;;;;;;5052054;28;20520;-71
2023/07/03 00:41:25;;;;;;;4.97;3.40;;;21.90;55.50;;;;;;5052670;28;20175;-71
2023/07/03 00:43:51;;;;;;;6.15;3.55;;;21.90;55.40;;;;;;5052789;28;20183;-70
2023/07/03 00:46:17;;;;;;;5.63;3.22;;;21.90;55.50;;;;;;5051415;28;20175;-69
2023/07/03 00:48:42;;;;;;;7.90;3.83;;;21.90;55.50;;;;;;5051452;28;20258;-69
2023/07/03 00:51:08;;;;;;;4.78;3.40;;;21.90;55.50;;;;;;5050941;28;20634;-69
2023/07/03 00:53:34;;;;;;;5.07;3.38;;;21.90;55.50;;;;;;5050733;28;20261;-69
2023/07/03 00:56:00;;;;;;;6.95;3.28;;;21.90;56.10;;;;;;5052101;28;20266;-68
2023/07/03 00:58:26;;;;;;;8.32;3.95;;;21.90;56.10;;;;;;5051867;28;20210;-70
2023/07/03 01:00:58;;;;;;;6.28;3.65;;;21.90;55.60;;;;;;5051368;28;20179;-72
2023/07/03 01:03:36;;;;;;;6.55;3.60;;;21.90;56.20;;;;;;5051397;28;20183;-71
2023/07/03 01:06:03;;;;;;;5.22;3.40;;;21.90;55.50;;;;;;5050297;28;20556;-71
2023/07/03 01:08:29;;;;;;;6.38;3.95;;;21.90;55.50;;;;;;5051139;28;20179;-70
2023/07/03 01:10:54;;;;;;;6.45;3.33;;;21.90;55.50;;;;;;5051011;28;20703;-69
2023/07/03 01:13:20;;;;;;;5.22;3.60;;;21.90;55.60;;;;;;5053109;28;20178;-69
2023/07/03 01:15:45;;;;;;;6.57;3.70;;;21.90;55.50;;;;;;5055205;28;20182;-69
2023/07/03 01:18:11;;;;;;;6.13;3.38;;;21.90;56.20;;;;;;5054710;28;20218;-69
2023/07/03 01:20:42;;;;;;;6.97;3.42;;;21.90;55.50;;;;;;5054173;28;20167;-69
2023/07/03 01:23:28;;;;;;;6.70;3.30;;;21.90;56.20;;;;;;5054327;28;20550;-69
2023/07/03 01:25:54;;;;;;;5.07;3.05;;;21.80;55.50;;;;;;5054830;28;20646;-68
2023/07/03 01:28:21;;;;;;;7.03;3.60;;;21.80;56.10;;;;;;5055004;28;20186;-69
2023/07/03 01:30:46;;;;;;;5.35;3.15;;;21.80;55.50;;;;;;5054787;28;20262;-71
2023/07/03 01:33:14;;;;;;;8.38;3.50;;;21.80;56.10;;;;;;5054353;28;20258;-71
2023/07/03 01:35:40;;;;;;;6.22;3.17;;;21.80;55.50;;;;;;5054947;28;20179;-70
2023/07/03 01:38:06;;;;;;;4.80;3.35;;;21.80;55.50;;;;;;5054412;28;20296;-70
2023/07/03 01:40:31;;;;;;;7.88;3.08;;;21.80;55.50;;;;;;5053523;28;20222;-71
2023/07/03 01:42:57;;;;;;;5.38;3.40;;;21.80;55.60;;;;;;5054092;28;20168;-71
2023/07/03 01:45:22;;;;;;;7.15;3.65;;;21.80;55.60;;;;;;5054443;28;20233;-70
2023/07/03 01:47:48;;;;;;;6.55;3.33;;;21.80;55.60;;;;;;5054866;28;20629;-69
2023/07/03 01:50:20;;;;;;;7.15;3.47;;;21.80;55.50;;;;;;5055332;28;20175;-69
2023/07/03 01:52:51;;;;;;;6.28;2.97;;;21.90;55.50;;;;;;5054169;28;20577;-68
2023/07/03 01:55:44;;;;;;;5.47;3.15;;;21.80;55.50;;;;;;5053368;28;20171;-69
2023/07/03 01:58:23;;;;;;;6.60;3.25;;;21.80;55.50;;;;;;5048667;28;20230;-71
2023/07/03 02:00:52;;;;;;;5.72;2.97;;;21.80;55.60;;;;;;5054136;28;20171;-72
2023/07/03 02:03:30;;;;;;;7.13;3.50;;;21.80;56.10;;;;;;5053224;28;20218;-72
2023/07/03 02:05:56;;;;;;;5.47;3.25;;;21.80;55.60;;;;;;5053868;28;20178;-72
2023/07/03 02:08:22;;;;;;;7.68;3.25;;;21.80;55.50;;;;;;5053972;28;20179;-70
2023/07/03 02:10:48;;;;;;;5.80;3.38;;;21.80;55.50;;;;;;5053330;28;20536;-70
2023/07/03 02:13:13;;;;;;;4.85;2.78;;;21.80;55.50;;;;;;5053471;28;20202;-70
2023/07/03 02:15:39;;;;;;;7.97;3.85;;;21.80;55.50;;;;;;5054213;28;20186;-70
2023/07/03 02:18:04;;;;;;;6.10;3.15;;;21.70;55.40;;;;;;5054717;28;20222;-70
2023/07/03 02:20:30;;;;;;;5.90;3.17;;;21.80;55.50;;;;;;5054846;28;20175;-69
2023/07/03 02:22:56;;;;;;;6.75;3.78;;;21.70;55.40;;;;;;5053810;28;20179;-70
2023/07/03 02:25:21;;;;;;;6.93;3.45;;;21.80;55.50;;;;;;5054809;28;20534;-69
2023/07/03 02:27:50;;;;;;;5.55;2.85;;;21.80;55.50;;;;;;5054685;28;20175;-69
2023/07/03 02:30:15;;;;;;;7.60;3.00;;;21.70;55.50;;;;;;5053711;28;20280;-70
2023/07/03 02:32:41;;;;;;;6.10;3.10;;;21.80;55.60;;;;;;5054650;28;20207;-71
2023/07/03 02:35:07;;;;;;;5.85;3.10;;;21.70;56.10;;;;;;5054605;28;20171;-71
2023/07/03 02:37:33;;;;;;;5.47;3.40;;;21.70;55.50;;;;;;5053755;28;20200;-71
2023/07/03 02:39:58;;;;;;;5.90;2.83;;;21.70;55.40;;;;;;5054068;28;20221;-70
2023/07/03 02:42:24;;;;;;;6.90;3.40;;;21.80;55.60;;;;;;5054597;28;20646;-70
2023/07/03 02:44:51;;;;;;;7.65;3.42;;;21.70;55.60;;;;;;5053996;28;20206;-70
2023/07/03 02:47:17;;;;;;;6.22;3.55;;;21.70;56.20;;;;;;5054304;28;20178;-69
2023/07/03 02:49:42;;;;;;;5.90;2.80;;;21.70;55.60;;;;;;5054369;28;20171;-69
2023/07/03 02:52:08;;;;;;;6.95;3.03;;;21.70;55.60;;;;;;5053236;28;20186;-68
2023/07/03 02:54:33;;;;;;;6.25;2.88;;;21.70;55.50;;;;;;5054324;28;20255;-69
2023/07/03 02:56:59;;;;;;;6.68;3.47;;;21.70;55.60;;;;;;5053813;28;20206;-70
2023/07/03 02:59:25;;;;;;;5.82;3.05;;;21.70;55.50;;;;;;5053593;28;20182;-72
2023/07/03 03:01:50;;;;;;;7.25;3.70;;;21.70;55.60;;;;;;5054253;28;20562;-72
2023/07/03 03:04:16;;;;;;;5.43;3.25;;;21.70;55.60;;;;;;5054003;28;20198;-71
2023/07/03 03:06:43;;;;;;;4.55;2.72;;;21.70;55.60;;;;;;5053450;28;20175;-70
2023/07/03 03:09:09;;;;;;;6.45;2.97;;;21.70;55.60;;;;;;5053920;28;20182;-70
2023/07/03 03:11:35;;;;;;;5.25;2.83;;;21.70;55.60;;;;;;5054037;28;20183;-69
2023/07/03 03:14:01;;;;;;;8.32;3.60;;;21.70;55.60;;;;;;5052898;28;20204;-69
2023/07/03 03:16:26;;;;;;;5.82;2.97;;;21.70;55.60;;;;;;5053805;28;20175;-69
2023/07/03 03:18:52;;;;;;;7.43;3.30;;;21.70;55.70;;;;;;5053687;28;20236;-69
2023/07/03 03:21:18;;;;;;;4.93;2.92;;;21.60;55.70;;;;;;5053150;28;20232;-69
2023/07/03 03:23:43;;;;;;;5.15;3.45;;;21.70;55.70;;;;;;5053710;28;20186;-69
2023/07/03 03:26:09;;;;;;;6.20;3.22;;;21.70;55.70;;;;;;5052853;28;20542;-69
2023/07/03 03:28:34;;;;;;;7.55;3.20;;;21.60;55.70;;;;;;5053833;28;20236;-68
2023/07/03 03:31:00;;;;;;;7.65;3.38;;;21.60;55.60;;;;;;5053348;28;20248;-70
2023/07/03 03:33:25;;;;;;;4.10;2.92;;;21.70;55.70;;;;;;5053017;28;20178;-70
2023/07/03 03:35:51;;;;;;;7.50;3.50;;;21.60;55.60;;;;;;5052889;28;20190;-71
2023/07/03 03:38:16;;;;;;;9.30;3.60;;;21.60;55.70;;;;;;5053127;28;20211;-70
2023/07/03 03:40:52;;;;;;;5.22;3.00;;;21.60;55.70;;;;;;5052445;28;20681;-70
2023/07/03 03:43:17;;;;;;;6.10;3.50;;;21.60;55.70;;;;;;5052062;28;20265;-70
2023/07/03 03:45:43;;;;;;;5.82;3.03;;;21.60;55.70;;;;;;5053764;28;20262;-69
2023/07/03 03:48:08;;;;;;;7.75;3.53;;;21.60;55.70;;;;;;5052141;28;20195;-69
2023/07/03 03:50:34;;;;;;;6.22;3.22;;;21.60;55.70;;;;;;5053337;28;20167;-69
2023/07/03 03:52:59;;;;;;;6.40;3.17;;;21.60;55.70;;;;;;5052967;28;20581;-69
2023/07/03 03:55:25;;;;;;;6.03;2.95;;;21.60;55.80;;;;;;5052616;28;20321;-69
2023/07/03 03:57:50;;;;;;;6.50;3.13;;;21.60;55.80;;;;;;5052068;28;20218;-69
2023/07/03 04:00:16;;;;;;;6.13;3.08;;;21.60;55.80;;;;;;5052818;28;20196;-70
2023/07/03 04:02:43;;;;;;;7.20;3.25;;;21.60;55.80;;;;;;5052539;28;20270;-71
2023/07/03 04:05:08;;;;;;;4.20;3.22;;;21.60;55.80;;;;;;5052978;28;20190;-70
2023/07/03 04:07:34;;;;;;;6.47;3.33;;;21.60;55.80;;;;;;5053004;28;20179;-69
2023/07/03 04:09:59;;;;;;;7.13;3.60;;;21.60;55.80;;;;;;5052070;28;20176;-69
2023/07/03 04:12:25;;;;;;;6.50;3.40;;;21.60;55.90;;;;;;5053121;28;20179;-69
2023/07/03 04:14:51;;;;;;;7.25;3.10;;;21.60;55.80;;;;;;5052752;28;20175;-69
2023/07/03 04:17:16;;;;;;;5.55;3.20;;;21.60;55.80;;;;;;5051836;28;20221;-69
2023/07/03 04:19:42;;;;;;;6.93;3.28;;;21.60;55.90;;;;;;5052922;28;20175;-70
2023/07/03 04:22:07;;;;;;;9.02;3.30;;;21.60;55.90;;;;;;5052507;28;20178;-69
2023/07/03 04:24:34;;;;;;;6.72;3.22;;;21.60;55.90;;;;;;5052245;28;20171;-69
2023/07/03 04:27:00;;;;;;;7.75;3.40;;;21.60;55.90;;;;;;5052555;28;20261;-69
2023/07/03 04:29:26;;;;;;;6.85;3.17;;;21.60;55.90;;;;;;5052148;28;20279;-69
2023/07/03 04:31:51;;;;;;;9.38;3.38;;;21.60;56.00;;;;;;5052841;28;20174;-69
2023/07/03 04:34:17;;;;;;;6.45;3.17;;;21.60;56.00;;;;;;5052409;28;20167;-71
2023/07/03 04:36:43;;;;;;;7.68;3.38;;;21.60;56.00;;;;;;5051934;28;20211;-71
2023/07/03 04:39:08;;;;;;;7.88;3.08;;;21.60;56.00;;;;;;5052028;28;20246;-70
2023/07/03 04:41:34;;;;;;;5.95;3.00;;;21.60;56.00;;;;;;5052831;28;20179;-69
2023/07/03 04:44:00;;;;;;;6.97;3.17;;;21.60;56.60;;;;;;5051473;28;20218;-69
2023/07/03 04:46:26;;;;;;;6.55;3.25;;;21.60;56.00;;;;;;5052466;28;20194;-68
2023/07/03 04:48:59;;;;;;;6.35;3.17;;;21.60;56.00;;;;;;5055338;28;20167;-69
2023/07/03 04:51:24;;;;;;;6.82;3.13;;;21.60;56.00;;;;;;5055599;28;20179;-68
2023/07/03 04:53:50;;;;;;;7.22;3.60;;;21.60;56.00;;;;;;5056501;28;20179;-69
2023/07/03 04:56:16;;;;;;;6.93;3.40;;;21.60;56.00;;;;;;5056174;28;20224;-69
2023/07/03 04:58:45;;;;;;;7.30;3.67;;;21.60;56.10;;;;;;5055824;28;20209;-70
2023/07/03 05:01:11;;;;;;;8.10;3.75;;;21.60;56.00;;;;;;5056173;28;20179;-71
2023/07/03 05:03:38;;;;;;;8.27;2.80;;;21.60;56.00;;;;;;5056351;28;20175;-71
2023/07/03 05:06:05;;;;;;;7.93;3.30;;;21.60;56.10;;;;;;5055237;28;20217;-71
2023/07/03 05:08:30;;;;;;;9.30;3.17;;;21.60;56.10;;;;;;5056361;28;20182;-70
2023/07/03 05:10:56;;;;;;;8.15;3.42;;;21.60;56.10;;;;;;5056120;28;20171;-69
2023/07/03 05:13:21;;;;;;;7.50;3.47;;;21.60;56.10;;;;;;5055622;28;20189;-70
2023/07/03 05:15:47;;;;;;;5.88;3.03;;;21.60;56.10;;;;;;5056317;28;20258;-69
2023/07/03 05:18:12;;;;;;;7.65;3.30;;;21.60;56.10;;;;;;5055802;28;20561;-68
2023/07/03 05:20:38;;;;;;;5.78;3.15;;;21.60;56.10;;;;;;5055233;28;20163;-69
2023/07/03 05:23:03;;;;;;;6.28;3.40;;;21.60;56.20;;;;;;5055554;28;20179;-69
2023/07/03 05:25:29;;;;;;;6.93;3.33;;;21.60;56.10;;;;;;5055556;28;20186;-69
2023/07/03 05:27:54;;;;;;;10.70;3.78;;;21.60;56.10;;;;;;5055906;28;20642;-69
2023/07/03 05:30:20;;;;;;;4.78;2.97;;;21.60;56.10;;;;;;5055739;28;20566;-69
2023/07/03 05:32:46;;;;;;;6.55;3.53;;;21.60;56.20;;;;;;5055120;28;20333;-71
2023/07/03 05:35:12;;;;;;;5.22;3.03;;;21.60;56.20;;;;;;5055564;28;20199;-71
2023/07/03 05:37:37;;;;;;;7.90;3.63;;;21.60;56.20;;;;;;5055558;28;20625;-70
2023/07/03 05:40:05;;;;;;;7.15;2.92;;;21.60;56.20;;;;;;5054474;28;20227;-71
2023/07/03 05:42:30;;;;;;;7.90;3.80;;;21.60;56.20;;;;;;5055675;28;20258;-70
2023/07/03 05:44:56;;;;;;;10.15;3.53;;;21.60;56.10;;;;;;5055302;28;20575;-70
2023/07/03 05:47:22;;;;;;;8.68;3.50;;;21.60;56.20;;;;;;5054848;28;20258;-69
2023/07/03 05:49:49;;;;;;;6.05;3.40;;;21.60;56.10;;;;;;5055444;28;20178;-69
2023/07/03 05:52:14;;;;;;;9.52;3.58;;;21.60;56.10;;;;;;5055268;28;20182;-69
2023/07/03 05:54:40;;;;;;;7.10;3.30;;;21.60;56.10;;;;;;5054867;28;20179;-69
2023/07/03 05:57:07;;;;;;;7.20;3.88;;;21.60;56.70;;;;;;5054984;28;20694;-69
2023/07/03 05:59:34;;;;;;;6.03;3.00;;;21.60;56.10;;;;;;5054903;28;20175;-71
2023/07/03 06:01:59;;;;;;;8.18;3.28;;;21.60;56.20;;;;;;5054245;28;20191;-72
2023/07/03 06:04:25;;;;;;;7.63;3.50;;;21.70;56.20;;;;;;5055429;28;20171;-71
2023/07/03 06:06:55;;;;;;;6.85;3.55;;;21.70;56.10;;;;;;5055329;28;20301;-71
2023/07/03 06:09:21;;;;;;;6.38;3.25;;;21.70;56.10;;;;;;5054617;28;20241;-69
2023/07/03 06:11:47;;;;;;;7.10;3.47;;;21.70;56.10;;;;;;5055298;28;20228;-69
2023/07/03 06:14:15;;;;;;;8.55;3.25;;;21.70;56.10;;;;;;5054774;28;20179;-70
2023/07/03 06:16:42;;;;;;;10.07;4.25;;;21.70;56.10;;;;;;5054170;28;20207;-70
2023/07/03 06:19:07;;;;;;;9.07;3.22;;;21.70;56.00;;;;;;5054576;28;20179;-70
2023/07/03 06:21:33;;;;;;;7.43;3.45;;;21.70;56.10;;;;;;5054992;28;20170;-70
2023/07/03 06:23:58;;;;;;;6.18;3.38;;;21.80;56.10;;;;;;5053787;28;20177;-69
2023/07/03 06:26:24;;;;;;;5.00;2.97;;;21.80;56.70;;;;;;5054884;28;20176;-69
2023/07/03 06:28:49;;;;;;;7.38;3.60;;;21.70;56.00;;;;;;5054121;28;20180;-70
2023/07/03 06:31:15;;;;;;;7.25;3.33;;;21.70;56.20;;;;;;5054409;28;20521;-70
2023/07/03 06:33:41;;;;;;;7.18;3.22;;;21.70;56.30;;;;;;5054493;28;20183;-71
2023/07/03 06:36:06;;;;;;;5.93;3.17;;;21.70;56.30;;;;;;5053693;28;20178;-70
2023/07/03 06:38:32;;;;;;;8.05;3.40;;;21.70;56.90;;;;;;5054778;28;20646;-71
2023/07/03 06:40:57;;;;;;;8.10;3.30;;;21.70;56.30;;;;;;5054148;28;20584;-71
2023/07/03 06:43:23;;;;;;;9.38;3.97;;;21.70;56.40;;;;;;5053836;28;20242;-70
2023/07/03 06:45:49;;;;;;;7.90;3.17;;;21.70;56.50;;;;;;5054533;28;20580;-69
2023/07/03 06:48:14;;;;;;;8.70;3.67;;;21.70;56.50;;;;;;5054062;28;20175;-68
2023/07/03 06:50:40;;;;;;;5.82;3.15;;;21.70;56.30;;;;;;5053587;28;20175;-68
2023/07/03 06:53:05;;;;;;;7.50;3.50;;;21.70;56.30;;;;;;5054241;28;20175;-68
2023/07/03 06:55:31;;;;;;;7.72;3.53;;;21.70;56.30;;;;;;5054088;28;20253;-68
2023/07/03 06:57:58;;;;;;;9.25;3.65;;;21.70;56.30;;;;;;5053127;28;20253;-73
2023/07/03 07:00:24;;;;;;;7.97;3.22;;;21.70;56.10;;;;;;5054282;28;20179;-75
2023/07/03 07:02:49;;;;;;;6.38;3.28;;;21.70;56.10;;;;;;5054238;28;20201;-77
2023/07/03 07:05:15;;;;;;;10.85;3.75;;;21.80;56.90;;;;;;5053491;28;20217;-74
2023/07/03 07:07:40;;;;;;;10.43;3.67;;;21.80;56.30;;;;;;5054137;28;20649;-72
2023/07/03 07:10:06;;;;;;;9.73;4.35;;;21.80;56.20;;;;;;5052937;28;20553;-72
2023/07/03 07:12:32;;;;;;;12.35;4.43;;;21.70;55.90;;;;;;5053088;28;20767;-72
2023/07/03 07:14:57;;;;;;;7.82;3.42;;;21.70;56.00;;;;;;5053604;28;20191;-72
2023/07/03 07:17:23;;;;;;;10.48;4.07;;;21.70;56.00;;;;;;5053919;28;20305;-72
2023/07/03 07:19:49;;;;;;;10.30;3.90;;;21.80;56.10;;;;;;5053003;28;20638;-72
2023/07/03 07:22:15;;;;;;;8.32;3.75;;;21.70;56.00;;;;;;5053635;28;20179;-71
2023/07/03 07:24:40;;;;;;;6.35;3.25;;;21.80;56.10;;;;;;5053625;28;20258;-72
2023/07/03 07:27:07;;;;;;;8.13;3.53;;;21.80;56.70;;;;;;5052615;28;20179;-71
2023/07/03 07:29:34;;;;;;;10.20;3.50;;;21.70;56.20;;;;;;5053833;28;20202;-72
2023/07/03 07:31:59;;;;;;;9.93;4.03;;;21.70;56.10;;;;;;5053075;28;20236;-72
2023/07/03 07:34:25;;;;;;;7.50;3.33;;;21.80;56.20;;;;;;5052996;28;20635;-72
2023/07/03 07:36:51;;;;;;;8.23;3.13;;;21.80;56.20;;;;;;5053400;28;20661;-73
2023/07/03 07:39:18;;;;;;;10.20;3.83;;;21.80;56.80;;;;;;5052375;28;20231;-72
2023/07/03 07:41:45;;;;;;;11.10;3.20;;;21.80;56.20;;;;;;5053590;28;20520;-72
2023/07/03 07:44:10;;;;;;;8.23;3.60;;;21.70;56.10;;;;;;5052960;28;20179;-72
2023/07/03 07:46:36;;;;;;;10.77;4.00;;;21.70;56.20;;;;;;5052829;28;20177;-71
2023/07/03 07:49:02;;;;;;;8.05;3.53;;;21.70;56.20;;;;;;5053231;28;20237;-72
2023/07/03 07:51:27;;;;;;;8.15;3.72;;;21.80;56.20;;;;;;5053392;28;20544;-71
2023/07/03 07:53:53;;;;;;;8.65;3.38;;;21.70;56.10;;;;;;5052544;28;20220;-71
2023/07/03 07:56:19;;;;;;;9.52;4.07;;;21.80;56.10;;;;;;5052866;28;20650;-71
2023/07/03 07:58:45;;;;;;;10.05;4.00;;;21.80;56.10;;;;;;5052980;28;20242;-73
2023/07/03 08:01:11;;;;;;;9.02;3.70;;;21.70;56.70;;;;;;5051984;28;20198;-73
2023/07/03 08:03:39;;;;;;;9.10;3.60;;;21.90;56.00;;;;;;5052971;28;20175;-73
2023/07/03 08:06:05;;;;;;;8.70;3.83;;;21.90;56.50;;;;;;5052811;28;20240;-72
2023/07/03 08:08:31;;;;;;;8.20;3.17;;;21.90;55.80;;;;;;5052247;28;20266;-72
2023/07/03 08:10:58;;;;;;;8.18;3.55;;;21.90;55.80;;;;;;5052743;28;20175;-72
2023/07/03 08:13:24;;;;;;;8.10;3.28;;;22.00;55.80;;;;;;5053002;28;20179;-72
2023/07/03 08:15:49;;;;;;;10.57;3.70;;;22.00;55.70;;;;;;5052013;28;20181;-72
2023/07/03 08:18:15;;;;;;;9.02;3.70;;;22.10;55.70;;;;;;5052485;28;20222;-72
2023/07/03 08:20:41;;;;;;;7.53;3.58;;;22.10;55.70;;;;;;5052817;28;20179;-72
2023/07/03 08:23:07;;;;;;;7.45;3.25;;;22.10;55.70;;;;;;5051960;28;20194;-72
2023/07/03 08:25:32;;;;;;;8.43;3.38;;;22.10;55.80;;;;;;5052765;28;20532;-72
2023/07/03 08:27:58;;;;;;;7.50;3.50;;;22.10;55.90;;;;;;5052420;28;20244;-72
2023/07/03 08:30:24;;;;;;;8.77;4.07;;;22.00;55.80;;;;;;5051934;28;20175;-72
2023/07/03 08:32:49;;;;;;;9.25;4.07;;;22.10;55.90;;;;;;5052874;28;20179;-73
2023/07/03 08:35:16;;;;;;;7.07;3.35;;;22.10;55.70;;;;;;5052543;28;20671;-73
2023/07/03 08:37:42;;;;;;;7.43;3.38;;;22.10;56.40;;;;;;5052005;28;20222;-73
2023/07/03 08:40:08;;;;;;;8.30;3.15;;;22.10;55.70;;;;;;5052130;28;20593;-72
2023/07/03 08:42:53;;;;;;;7.72;3.30;;;22.20;55.70;;;;;;5050581;28;20183;-72
2023/07/03 08:45:18;;;;;;;5.97;3.30;;;22.20;55.70;;;;;;5052279;28;20653;-72
2023/07/03 08:47:45;;;;;;;5.22;2.97;;;22.20;55.70;;;;;;5051276;28;20178;-71
2023/07/03 08:50:12;;;;;;;8.40;3.58;;;22.20;55.70;;;;;;5033824;28;20654;-71
2023/07/03 08:52:43;;;;;;;7.00;3.25;;;22.20;55.60;;;;;;5051352;28;20180;-71
2023/07/03 08:55:11;;;;;;;8.45;3.53;;;22.30;55.60;;;;;;5034730;28;20194;-72
2023/07/03 08:57:37;;;;;;;6.72;3.45;;;22.30;55.50;;;;;;5034006;28;20272;-72
2023/07/03 09:00:05;;;;;;;7.90;3.45;;;22.30;55.60;;;;;;5052178;28;20175;-73
2023/07/03 09:02:41;;;;;;;6.85;3.28;;;22.20;55.60;;;;;;5052591;28;20179;-73
2023/07/03 09:05:36;;;;;;;7.32;3.38;;;22.20;55.70;;;;;;5050005;28;20186;-73
2023/07/03 09:08:03;;;;;;;6.80;3.17;;;22.10;55.80;;;;;;5051240;28;20217;-72
2023/07/03 09:10:40;;;;;;;6.25;3.10;;;22.10;55.90;;;;;;5051405;28;20189;-73
2023/07/03 09:13:13;;;;;;;6.95;2.95;;;22.00;56.00;;;;;;5035477;28;20171;-73
2023/07/03 09:15:54;;;;;;;9.00;3.20;;;22.00;56.00;;;;;;5051200;28;20197;-72
2023/07/03 09:18:22;;;;;;;6.95;3.25;;;22.00;56.00;;;;;;5050257;28;20215;-72
2023/07/03 09:20:47;;;;;;;5.95;3.05;;;22.00;56.60;;;;;;5051339;28;20171;-72
2023/07/03 09:23:17;;;;;;;7.82;4.18;;;22.00;55.90;;;;;;5050910;28;20175;-72
2023/07/03 09:26:23;;;;;;;8.13;3.00;;;22.00;55.80;;;;;;5051330;28;20626;-72
2023/07/03 09:28:49;;;;;;;7.95;3.08;;;22.10;55.80;;;;;;5049145;28;20658;-72
2023/07/03 09:31:16;;;;;;;5.75;2.50;;;22.10;55.60;;;;;;5050817;28;20607;-73
2023/07/03 09:33:41;;;;;;;6.80;3.63;;;22.10;55.60;;;;;;5053213;28;20636;-74
2023/07/03 09:36:23;;;;;;;5.80;2.70;;;22.10;55.50;;;;;;5054464;28;20210;-74
2023/07/03 09:38:49;;;;;;;6.90;2.80;;;22.20;55.40;;;;;;5053691;28;20636;-72
2023/07/03 09:41:17;;;;;;;5.90;3.20;;;22.10;55.40;;;;;;5055647;28;20681;-74
2023/07/03 09:43:43;;;;;;;4.63;2.47;;;22.00;55.50;;;;;;5038241;28;20182;-70
2023/07/03 09:46:10;;;;;;;7.78;3.35;;;22.00;55.60;;;;;;5053889;28;20255;-70
2023/07/03 09:48:36;;;;;;;8.80;3.30;;;22.00;55.80;;;;;;5053830;28;20175;-69
2023/07/03 09:51:20;;;;;;;5.82;2.95;;;21.90;55.90;;;;;;5054966;28;20182;-68
2023/07/03 09:53:45;;;;;;;7.28;2.90;;;22.00;56.00;;;;;;5053601;28;20167;-69
2023/07/03 09:56:15;;;;;;;5.20;2.88;;;22.00;56.00;;;;;;5054527;28;20225;-70
2023/07/03 09:58:50;;;;;;;8.55;3.17;;;22.00;56.70;;;;;;5055038;28;20300;-71
2023/07/03 10:01:20;;;;;;;5.80;2.88;;;22.00;56.00;;;;;;5051743;28;20545;-72
2023/07/03 10:03:45;;;;;;;5.97;3.17;;;22.00;56.00;;;;;;5054880;28;20171;-71
2023/07/03 10:06:13;;;;;;;6.82;2.83;;;22.10;55.90;;;;;;5054383;28;20653;-74
2023/07/03 10:08:45;;;;;;;7.50;2.72;;;22.10;55.80;;;;;;5052742;28;20627;-73
2023/07/03 10:11:10;;;;;;;9.73;3.53;;;22.20;55.70;;;;;;5053340;28;20183;-71
2023/07/03 10:13:46;;;;;;;5.10;3.20;;;22.20;55.60;;;;;;5053829;28;20170;-72
2023/07/03 10:16:12;;;;;;;6.10;2.85;;;22.20;55.60;;;;;;5053096;28;20179;-72
2023/07/03 10:18:44;;;;;;;5.63;2.75;;;22.10;55.50;;;;;;5053685;28;20815;-73
2023/07/03 10:21:10;;;;;;;5.82;2.92;;;22.10;55.60;;;;;;5053957;28;20510;-73
2023/07/03 10:23:37;;;;;;;6.53;2.90;;;22.10;55.70;;;;;;5053888;28;20171;-72
2023/07/03 10:26:04;;;;;;;5.45;2.42;;;22.10;55.80;;;;;;5053491;28;20171;-71
2023/07/03 10:28:37;;;;;;;6.13;2.70;;;22.10;55.80;;;;;;5054272;28;20171;-72
2023/07/03 10:31:05;;;;;;;6.47;2.72;;;22.10;55.80;;;;;;5053222;28;20195;-73
2023/07/03 10:33:33;;;;;;;6.40;2.67;;;22.00;55.70;;;;;;5053470;28;20175;-75
2023/07/03 10:36:00;;;;;;;6.88;2.78;;;22.00;55.80;;;;;;5052745;28;20182;-73
2023/07/03 10:38:30;;;;;;;8.15;3.05;;;22.00;55.80;;;;;;5053532;28;20222;-71
2023/07/03 10:41:00;;;;;;;11.68;3.03;;;22.00;55.70;;;;;;5054131;28;20712;-72
2023/07/03 10:43:28;;;;;;;6.90;2.78;;;22.00;55.70;;;;;;5052711;28;20254;-70
2023/07/03 10:45:53;;;;;;;9.30;2.50;;;22.10;55.70;;;;;;5051844;28;20185;-70
2023/07/03 10:48:23;;;;;;;8.73;2.70;;;22.10;55.60;;;;;;5052477;28;20266;-69
2023/07/03 10:51:08;;;;;;;5.82;2.65;;;22.10;55.60;;;;;;5051834;28;20171;-70
2023/07/03 10:53:53;;;;;;;6.53;3.13;;;22.00;55.60;;;;;;5052909;28;20545;-70
2023/07/03 10:56:33;;;;;;;7.70;2.92;;;22.00;55.60;;;;;;5051700;28;20179;-68
2023/07/03 10:59:20;;;;;;;7.55;2.72;;;22.10;55.60;;;;;;5053750;28;20197;-68
2023/07/03 11:01:54;;;;;;;7.72;2.97;;;22.00;55.50;;;;;;5052946;28;20182;-68
2023/07/03 11:04:21;;;;;;;8.13;2.83;;;22.00;55.60;;;;;;5051861;28;20305;-70
2023/07/03 11:07:10;;;;;;;10.27;2.67;;;22.00;55.70;;;;;;5054398;28;20537;-70
2023/07/03 11:09:47;;;;;;;6.97;2.47;;;22.00;55.70;;;;;;5054116;28;20194;-69
2023/07/03 11:12:21;;;;;;;7.43;3.00;;;22.00;55.70;;;;;;5051819;28;20200;-69
2023/07/03 11:14:57;;;;;;;6.35;2.35;;;22.00;55.70;;;;;;5052619;28;20209;-69
2023/07/03 11:17:59;;;;;;;8.25;2.78;;;22.10;55.70;;;;;;5052142;28;20323;-69
2023/07/03 11:20:40;;;;;;;5.68;2.72;;;22.00;55.60;;;;;;5052267;28;20194;-70
2023/07/03 11:24:03;;;;;;;5.15;2.25;;;22.00;55.60;;;;;;5053249;28;20175;-69
2023/07/03 11:26:31;;;;;;;7.80;2.50;;;22.00;55.70;;;;;;5030864;28;20198;-69
2023/07/03 11:28:57;;;;;;;6.38;2.30;;;22.00;55.70;;;;;;5014567;28;20206;-70
2023/07/03 11:31:25;;;;;;;6.30;2.28;;;22.00;55.70;;;;;;5019573;28;20187;-71
2023/07/03 11:33:51;;;;;;;6.93;2.60;;;22.00;56.30;;;;;;5052498;28;20214;-71
2023/07/03 11:36:40;;;;;;;6.57;1.90;;;22.10;55.70;;;;;;5052155;28;20198;-70
2023/07/03 11:39:28;;;;;;;7.07;2.72;;;22.10;55.70;;;;;;5052334;28;20234;-69
2023/07/03 11:42:12;;;;;;;6.25;2.65;;;22.10;55.70;;;;;;5052132;28;20167;-70
2023/07/03 11:45:02;;;;;;;6.45;2.50;;;22.20;55.60;;;;;;5053506;28;20258;-69
2023/07/03 11:47:30;;;;;;;5.40;2.08;;;22.20;55.40;;;;;;5052232;28;20183;-68
2023/07/03 11:50:03;;;;;;;3.80;1.92;;;22.30;55.90;;;;;;5051854;28;20175;-68
2023/07/03 11:52:29;;;;;;;5.63;2.72;;;22.40;55.20;;;;;;5052460;28;20186;-68
2023/07/03 11:54:59;;;;;;;7.57;2.22;;;22.50;55.00;;;;;;5053293;28;20190;-70
2023/07/03 11:57:37;;;;;;;7.30;2.70;;;22.60;54.80;;;;;;5051548;28;20211;-71
2023/07/03 12:00:16;;;;;;;7.43;2.42;;;22.60;54.70;;;;;;5052084;28;20178;-73
2023/07/03 12:03:03;;;;;;;6.07;2.47;;;22.50;54.60;;;;;;5051698;28;20547;-73
2023/07/03 12:08:18;;;;;;;4.05;2.10;;;22.50;54.70;;;;;;5052082;28;20661;-71
2023/07/03 12:10:55;;;;;;;7.82;2.55;;;22.50;54.60;;;;;;5051909;28;20269;-69
2023/07/03 12:13:39;;;;;;;5.38;2.33;;;22.50;54.80;;;;;;5052752;28;20186;-69
2023/07/03 12:16:17;;;;;;;6.05;2.60;;;22.40;54.90;;;;;;5052624;28;20551;-69
2023/07/03 12:18:43;;;;;;;3.70;2.33;;;22.40;55.00;;;;;;5052670;28;20548;-70
2023/07/03 12:21:08;;;;;;;7.75;2.30;;;22.40;55.20;;;;;;5051864;28;20183;-70
2023/07/03 12:23:42;;;;;;;5.95;2.25;;;22.30;55.10;;;;;;5051554;28;20321;-71
2023/07/03 12:26:12;;;;;;;5.10;1.80;;;22.20;55.10;;;;;;5052394;28;20652;-69
2023/07/03 12:28:38;;;;;;;5.18;2.35;;;22.20;55.10;;;;;;5052157;28;20589;-75
2023/07/03 12:31:14;;;;;;;5.78;2.30;;;22.20;54.30;;;;;;5052555;28;20254;-80
2023/07/03 12:33:54;;;;;;;8.02;2.50;;;22.20;53.70;;;;;;5052720;28;20186;-80
2023/07/03 12:36:27;;;;;;;8.45;2.58;;;22.30;53.70;;;;;;5051804;28;20179;-77
2023/07/03 12:38:53;;;;;;;6.93;1.95;;;22.40;53.40;;;;;;5051423;28;20306;-74
2023/07/03 12:41:23;;;;;;;7.63;2.78;;;22.50;53.20;;;;;;5052542;28;20182;-74
2023/07/03 12:43:48;;;;;;;4.68;1.85;;;22.50;53.40;;;;;;5051975;28;20232;-78
2023/07/03 12:46:25;;;;;;;5.25;2.28;;;22.40;53.60;;;;;;5052444;28;20261;-75
2023/07/03 12:49:01;;;;;;;5.10;1.98;;;22.40;53.70;;;;;;5051819;28;20637;-75
2023/07/03 12:51:26;;;;;;;8.02;2.05;;;22.40;53.80;;;;;;5052507;28;20586;-76
2023/07/03 12:53:52;;;;;;;6.07;2.20;;;22.40;53.80;;;;;;5052579;28;20179;-72
2023/07/03 12:56:17;;;;;;;6.20;2.22;;;22.40;53.90;;;;;;5050400;28;20710;-72